Main page
METAR-TAF:

METAR-TAF

Airports :

São Gabriel da Cachoeira Airport

São Gabriel da Cachoeira, Amazonas, Brazil

latitude: 00-08S, longitude: 067-05W, elevation: 90 m

Current weather observation

The report was made 1 hour and 39 minutes ago, at 19:00 UTC
Wind 7 kt from the East/Southeast
Temperature 34°C
Humidity 60%
Pressure 1005 hPa
Visibility 10 km or more
Scattered clouds at a height of 2500 ft

METAR: SBUA 281900Z 11007KT 9999 SCT025 34/25 Q1005

Time: 16:39 (20:39 UTC)


TAF: missing

Weather observations and forecasts of more than 4000 airports (METAR and TAF reports).

The available stations are represented by yellow and red dots on the map.

Hover mouse over dot to see the name of the station.

Then click to see weather observations and forecasts.

To change the map : click on the green buttons with a black cross to zoom in, on the green button with a dash to zoom out, or on the green arrows for adjacent maps.


METAR-TAF: